Venedocia, OH

10:08 PM EST on February 23, 2017 (GMT -0500)
N1ICS - Ridge Township, OH | | Change Station

Elev 784 ft 40.85 °N, 84.48 °W | Updated 2 minutes ago

Overcast
Overcast
57.2 °F
Feels Like 57.2 °F
N
6.3
Wind Variable Wind from SE
Gusts 6.3 mph

Today
High -- | Low -- °F
--% Chance of Precip.
Yesterday
High -- | Low -- °F
Precip. -- in
Pressure 29.76 in
Visibility 10.0 miles
Clouds Mostly Cloudy 6000 ft
Mostly Cloudy 7500 ft
Overcast 9000 ft
Dew Point 49 °F
Humidity 74%
Rainfall 0.00 in
Snow Depth Not available.
7:20 AM 6:22 PM
Waning Crescent, 7% visible
METAR KAOH 240253Z AUTO 13007KT 10SM BKN060 BKN075 OVC090 14/13 A2976 RMK AO2 SLP076 T01440128 57001
Pressure 29.76 in
Visibility 10.0 miles
Clouds Mostly Cloudy 6000 ft
Mostly Cloudy 7500 ft
Overcast 9000 ft
Dew Point 49 °F
Humidity 74%
Rainfall 0.00 in
Snow Depth Not available.
7:20 AM 6:22 PM
Waning Crescent, 7% visible
METAR KAOH 240253Z AUTO 13007KT 10SM BKN060 BKN075 OVC090 14/13 A2976 RMK AO2 SLP076 T01440128 57001

Get Your Daily Forecast Email!

Thanks for signing up!

Be on the lookout for a verification email in your inbox.

You'll start receiving the daily forecast at 8 AM.

×

10-Day Weather Forecast

Almanac

Astronomy

Feb. 23, 2017 Rise Set
Actual Time
Civil Twilight
Nautical Twilight
Astronomical Twilight
Moon
Length of Visible Light
Length of Day
Tomorrow will be .
, % of the Moon is Illuminated

Today's Extremes

State Highs State Lows

Community

WunderPhotos

Upload Photos

1,962,540 photos uploaded!

WunderBlog® & News

Nearby

Air Quality

  Air Quality AQ Index Pollutant
Not available.

Snow Depth

Station Depth Elevation

Earthquake Activity

City Distance Mag. Time & Date
Minimum magnitude displayed is 2.5.

Coastal Water Temperatures

Place Temperature

Stations

Nearby Weather Stations

Station Location Temp. Windchill Dew Point Humidity Wind Precip. Elev Updated Type
                   

Watches & Warnings

There are currently no watches in effect.